sensor_id;sensor_type;location;lat;lon;timestamp;P1;durP1;ratioP1;P2;durP2;ratioP2
31386;SDS011;69978;50.096;8.448;2024-01-10T00:01:39;20.55;;;4.47;;
31386;SDS011;69978;50.096;8.448;2024-01-10T00:04:05;16.75;;;4.57;;
31386;SDS011;69978;50.096;8.448;2024-01-10T00:06:30;16.55;;;4.18;;
31386;SDS011;69978;50.096;8.448;2024-01-10T00:08:57;16.88;;;4.50;;
31386;SDS011;69978;50.096;8.448;2024-01-10T00:11:23;15.43;;;4.45;;
31386;SDS011;69978;50.096;8.448;2024-01-10T00:13:48;20.60;;;4.45;;
31386;SDS011;69978;50.096;8.448;2024-01-10T00:16:14;16.17;;;4.28;;
31386;SDS011;69978;50.096;8.448;2024-01-10T00:18:40;21.08;;;4.80;;
31386;SDS011;69978;50.096;8.448;2024-01-10T00:21:07;17.70;;;4.30;;
31386;SDS011;69978;50.096;8.448;2024-01-10T00:23:33;17.80;;;4.63;;
31386;SDS011;69978;50.096;8.448;2024-01-10T00:25:59;15.82;;;4.38;;
31386;SDS011;69978;50.096;8.448;2024-01-10T00:28:25;15.15;;;4.68;;
31386;SDS011;69978;50.096;8.448;2024-01-10T00:30:54;21.00;;;4.47;;
31386;SDS011;69978;50.096;8.448;2024-01-10T00:33:19;23.00;;;5.13;;
31386;SDS011;69978;50.096;8.448;2024-01-10T00:35:45;22.90;;;5.50;;
31386;SDS011;69978;50.096;8.448;2024-01-10T00:38:13;21.83;;;4.63;;
31386;SDS011;69978;50.096;8.448;2024-01-10T00:40:38;20.75;;;5.45;;
31386;SDS011;69978;50.096;8.448;2024-01-10T00:43:04;16.40;;;4.57;;
31386;SDS011;69978;50.096;8.448;2024-01-10T00:45:30;18.88;;;5.10;;
31386;SDS011;69978;50.096;8.448;2024-01-10T00:47:55;17.58;;;4.50;;
31386;SDS011;69978;50.096;8.448;2024-01-10T00:50:21;22.52;;;5.18;;
31386;SDS011;69978;50.096;8.448;2024-01-10T00:52:48;23.35;;;5.47;;
31386;SDS011;69978;50.096;8.448;2024-01-10T00:55:14;20.27;;;4.78;;
31386;SDS011;69978;50.096;8.448;2024-01-10T00:57:40;21.33;;;5.28;;
31386;SDS011;69978;50.096;8.448;2024-01-10T01:00:06;21.38;;;5.78;;
31386;SDS011;69978;50.096;8.448;2024-01-10T01:02:33;23.67;;;5.32;;
31386;SDS011;69978;50.096;8.448;2024-01-10T01:04:58;18.50;;;5.30;;
31386;SDS011;69978;50.096;8.448;2024-01-10T01:07:24;21.10;;;5.47;;
31386;SDS011;69978;50.096;8.448;2024-01-10T01:09:50;21.05;;;5.65;;
31386;SDS011;69978;50.096;8.448;2024-01-10T01:12:16;23.45;;;5.60;;
31386;SDS011;69978;50.096;8.448;2024-01-10T01:14:41;25.33;;;5.95;;
31386;SDS011;69978;50.096;8.448;2024-01-10T01:17:07;23.63;;;5.63;;
31386;SDS011;69978;50.096;8.448;2024-01-10T01:19:33;22.92;;;5.25;;
31386;SDS011;69978;50.096;8.448;2024-01-10T01:21:58;23.90;;;5.53;;
31386;SDS011;69978;50.096;8.448;2024-01-10T01:24:25;25.92;;;5.53;;
31386;SDS011;69978;50.096;8.448;2024-01-10T01:26:51;22.17;;;6.15;;
31386;SDS011;69978;50.096;8.448;2024-01-10T01:29:17;19.92;;;5.90;;
31386;SDS011;69978;50.096;8.448;2024-01-10T01:31:43;23.67;;;6.22;;
31386;SDS011;69978;50.096;8.448;2024-01-10T01:34:08;26.92;;;6.20;;
31386;SDS011;69978;50.096;8.448;2024-01-10T01:36:34;23.73;;;6.35;;
31386;SDS011;69978;50.096;8.448;2024-01-10T01:38:59;28.60;;;6.18;;
31386;SDS011;69978;50.096;8.448;2024-01-10T01:41:27;29.38;;;6.68;;
31386;SDS011;69978;50.096;8.448;2024-01-10T01:43:52;22.92;;;6.07;;
31386;SDS011;69978;50.096;8.448;2024-01-10T01:46:18;25.63;;;6.40;;
31386;SDS011;69978;50.096;8.448;2024-01-10T01:48:44;26.48;;;6.30;;
31386;SDS011;69978;50.096;8.448;2024-01-10T01:51:10;22.42;;;6.00;;
31386;SDS011;69978;50.096;8.448;2024-01-10T01:53:37;24.40;;;6.28;;
31386;SDS011;69978;50.096;8.448;2024-01-10T01:56:08;20.65;;;6.00;;
31386;SDS011;69978;50.096;8.448;2024-01-10T01:58:34;22.58;;;5.28;;
31386;SDS011;69978;50.096;8.448;2024-01-10T02:01:02;26.02;;;6.18;;
31386;SDS011;69978;50.096;8.448;2024-01-10T02:03:28;27.48;;;6.10;;
31386;SDS011;69978;50.096;8.448;2024-01-10T02:05:55;23.38;;;6.50;;
31386;SDS011;69978;50.096;8.448;2024-01-10T02:08:22;27.48;;;5.75;;
31386;SDS011;69978;50.096;8.448;2024-01-10T02:10:48;22.13;;;6.00;;
31386;SDS011;69978;50.096;8.448;2024-01-10T02:13:14;24.33;;;6.45;;
31386;SDS011;69978;50.096;8.448;2024-01-10T02:15:40;27.90;;;6.30;;
31386;SDS011;69978;50.096;8.448;2024-01-10T02:18:06;20.70;;;5.60;;
31386;SDS011;69978;50.096;8.448;2024-01-10T02:20:31;26.35;;;6.88;;
31386;SDS011;69978;50.096;8.448;2024-01-10T02:22:57;27.35;;;5.90;;
31386;SDS011;69978;50.096;8.448;2024-01-10T02:25:23;24.35;;;6.15;;
31386;SDS011;69978;50.096;8.448;2024-01-10T02:27:48;25.52;;;5.95;;
31386;SDS011;69978;50.096;8.448;2024-01-10T02:30:14;23.85;;;6.32;;
31386;SDS011;69978;50.096;8.448;2024-01-10T02:32:40;29.67;;;5.88;;
31386;SDS011;69978;50.096;8.448;2024-01-10T02:35:06;27.77;;;6.50;;
31386;SDS011;69978;50.096;8.448;2024-01-10T02:37:33;27.40;;;5.85;;
31386;SDS011;69978;50.096;8.448;2024-01-10T02:39:58;24.83;;;6.07;;
31386;SDS011;69978;50.096;8.448;2024-01-10T02:42:24;23.38;;;6.10;;
31386;SDS011;69978;50.096;8.448;2024-01-10T02:44:51;25.42;;;5.72;;
31386;SDS011;69978;50.096;8.448;2024-01-10T02:47:16;25.98;;;6.05;;
31386;SDS011;69978;50.096;8.448;2024-01-10T02:49:42;26.20;;;6.45;;
31386;SDS011;69978;50.096;8.448;2024-01-10T02:52:07;31.25;;;6.07;;
31386;SDS011;69978;50.096;8.448;2024-01-10T02:54:33;23.02;;;6.57;;
31386;SDS011;69978;50.096;8.448;2024-01-10T02:56:58;25.67;;;6.10;;
31386;SDS011;69978;50.096;8.448;2024-01-10T02:59:24;24.75;;;6.50;;
31386;SDS011;69978;50.096;8.448;2024-01-10T03:01:50;22.83;;;5.60;;
31386;SDS011;69978;50.096;8.448;2024-01-10T03:04:15;23.23;;;5.90;;
31386;SDS011;69978;50.096;8.448;2024-01-10T03:06:41;20.40;;;6.07;;
31386;SDS011;69978;50.096;8.448;2024-01-10T03:09:06;25.20;;;5.60;;
31386;SDS011;69978;50.096;8.448;2024-01-10T03:11:32;25.73;;;6.18;;
31386;SDS011;69978;50.096;8.448;2024-01-10T03:14:00;23.55;;;6.25;;
31386;SDS011;69978;50.096;8.448;2024-01-10T03:16:28;25.85;;;6.15;;
31386;SDS011;69978;50.096;8.448;2024-01-10T03:18:54;30.30;;;6.53;;
31386;SDS011;69978;50.096;8.448;2024-01-10T03:21:19;26.45;;;6.78;;
31386;SDS011;69978;50.096;8.448;2024-01-10T03:23:56;26.70;;;6.43;;
31386;SDS011;69978;50.096;8.448;2024-01-10T03:26:22;32.03;;;6.95;;
31386;SDS011;69978;50.096;8.448;2024-01-10T03:28:50;25.23;;;6.45;;
31386;SDS011;69978;50.096;8.448;2024-01-10T03:31:16;26.73;;;6.18;;
31386;SDS011;69978;50.096;8.448;2024-01-10T03:33:43;20.83;;;5.47;;
31386;SDS011;69978;50.096;8.448;2024-01-10T03:36:10;30.58;;;6.03;;
31386;SDS011;69978;50.096;8.448;2024-01-10T03:38:38;27.65;;;5.80;;
31386;SDS011;69978;50.096;8.448;2024-01-10T03:41:04;28.98;;;6.32;;
31386;SDS011;69978;50.096;8.448;2024-01-10T03:43:31;25.40;;;5.95;;
31386;SDS011;69978;50.096;8.448;2024-01-10T03:45:57;23.85;;;6.10;;
31386;SDS011;69978;50.096;8.448;2024-01-10T03:48:23;21.67;;;5.60;;
31386;SDS011;69978;50.096;8.448;2024-01-10T03:50:49;20.50;;;5.70;;
31386;SDS011;69978;50.096;8.448;2024-01-10T03:53:15;19.85;;;5.20;;
31386;SDS011;69978;50.096;8.448;2024-01-10T03:55:40;25.05;;;5.85;;
31386;SDS011;69978;50.096;8.448;2024-01-10T03:58:06;28.92;;;6.07;;
31386;SDS011;69978;50.096;8.448;2024-01-10T04:00:32;26.38;;;6.28;;
31386;SDS011;69978;50.096;8.448;2024-01-10T04:02:58;24.88;;;5.88;;
31386;SDS011;69978;50.096;8.448;2024-01-10T04:05:23;20.88;;;5.68;;
31386;SDS011;69978;50.096;8.448;2024-01-10T04:07:50;20.85;;;6.10;;
31386;SDS011;69978;50.096;8.448;2024-01-10T04:10:17;28.17;;;5.70;;
31386;SDS011;69978;50.096;8.448;2024-01-10T04:12:43;25.85;;;5.93;;
31386;SDS011;69978;50.096;8.448;2024-01-10T04:15:10;21.80;;;5.38;;
31386;SDS011;69978;50.096;8.448;2024-01-10T04:17:36;23.30;;;5.95;;
31386;SDS011;69978;50.096;8.448;2024-01-10T04:20:02;22.42;;;5.63;;
31386;SDS011;69978;50.096;8.448;2024-01-10T04:22:30;29.88;;;6.05;;
31386;SDS011;69978;50.096;8.448;2024-01-10T04:24:57;26.23;;;6.65;;
31386;SDS011;69978;50.096;8.448;2024-01-10T04:27:23;21.30;;;5.63;;
31386;SDS011;69978;50.096;8.448;2024-01-10T04:29:49;28.45;;;6.50;;
31386;SDS011;69978;50.096;8.448;2024-01-10T04:32:16;25.70;;;5.88;;
31386;SDS011;69978;50.096;8.448;2024-01-10T04:34:42;28.77;;;6.03;;
31386;SDS011;69978;50.096;8.448;2024-01-10T04:37:09;25.02;;;6.20;;
31386;SDS011;69978;50.096;8.448;2024-01-10T04:39:35;21.02;;;5.35;;
31386;SDS011;69978;50.096;8.448;2024-01-10T04:42:02;23.17;;;5.65;;
31386;SDS011;69978;50.096;8.448;2024-01-10T04:44:29;21.60;;;5.80;;
31386;SDS011;69978;50.096;8.448;2024-01-10T04:46:55;21.88;;;5.68;;
31386;SDS011;69978;50.096;8.448;2024-01-10T04:49:20;22.88;;;5.72;;
31386;SDS011;69978;50.096;8.448;2024-01-10T04:51:46;21.83;;;6.40;;
31386;SDS011;69978;50.096;8.448;2024-01-10T04:54:13;27.85;;;6.45;;
31386;SDS011;69978;50.096;8.448;2024-01-10T04:56:39;27.67;;;6.38;;
31386;SDS011;69978;50.096;8.448;2024-01-10T04:59:05;23.63;;;6.20;;
31386;SDS011;69978;50.096;8.448;2024-01-10T05:01:31;21.63;;;5.18;;
31386;SDS011;69978;50.096;8.448;2024-01-10T05:03:57;25.05;;;6.15;;
31386;SDS011;69978;50.096;8.448;2024-01-10T05:06:23;25.83;;;5.55;;
31386;SDS011;69978;50.096;8.448;2024-01-10T05:08:49;20.13;;;5.75;;
31386;SDS011;69978;50.096;8.448;2024-01-10T05:11:15;23.77;;;5.60;;
31386;SDS011;69978;50.096;8.448;2024-01-10T05:13:41;24.80;;;5.35;;
31386;SDS011;69978;50.096;8.448;2024-01-10T05:16:07;24.63;;;5.80;;
31386;SDS011;69978;50.096;8.448;2024-01-10T05:18:33;21.48;;;5.78;;
31386;SDS011;69978;50.096;8.448;2024-01-10T05:20:59;22.48;;;4.95;;
31386;SDS011;69978;50.096;8.448;2024-01-10T05:23:26;22.45;;;6.70;;
31386;SDS011;69978;50.096;8.448;2024-01-10T05:25:51;19.88;;;4.97;;
31386;SDS011;69978;50.096;8.448;2024-01-10T05:28:17;26.73;;;5.97;;
31386;SDS011;69978;50.096;8.448;2024-01-10T05:30:42;24.27;;;5.57;;
31386;SDS011;69978;50.096;8.448;2024-01-10T05:33:09;21.48;;;5.68;;
31386;SDS011;69978;50.096;8.448;2024-01-10T05:35:35;17.83;;;5.18;;
31386;SDS011;69978;50.096;8.448;2024-01-10T05:38:02;28.67;;;6.18;;
31386;SDS011;69978;50.096;8.448;2024-01-10T05:40:28;20.17;;;5.35;;
31386;SDS011;69978;50.096;8.448;2024-01-10T05:42:55;24.40;;;6.20;;
31386;SDS011;69978;50.096;8.448;2024-01-10T05:45:20;24.13;;;5.63;;
31386;SDS011;69978;50.096;8.448;2024-01-10T05:47:46;25.70;;;5.93;;
31386;SDS011;69978;50.096;8.448;2024-01-10T05:50:13;20.67;;;5.20;;
31386;SDS011;69978;50.096;8.448;2024-01-10T05:52:40;27.48;;;6.40;;
31386;SDS011;69978;50.096;8.448;2024-01-10T05:55:05;27.48;;;7.20;;
31386;SDS011;69978;50.096;8.448;2024-01-10T05:57:34;30.05;;;6.15;;
31386;SDS011;69978;50.096;8.448;2024-01-10T05:59:59;23.60;;;6.05;;
31386;SDS011;69978;50.096;8.448;2024-01-10T06:02:26;21.15;;;6.22;;
31386;SDS011;69978;50.096;8.448;2024-01-10T06:04:52;28.90;;;6.50;;
31386;SDS011;69978;50.096;8.448;2024-01-10T06:07:18;23.02;;;6.13;;
31386;SDS011;69978;50.096;8.448;2024-01-10T06:09:44;31.45;;;6.35;;
31386;SDS011;69978;50.096;8.448;2024-01-10T06:12:10;24.40;;;5.93;;
31386;SDS011;69978;50.096;8.448;2024-01-10T06:14:35;24.02;;;6.35;;
31386;SDS011;69978;50.096;8.448;2024-01-10T06:17:01;25.80;;;6.55;;
31386;SDS011;69978;50.096;8.448;2024-01-10T06:19:29;26.63;;;6.95;;
31386;SDS011;69978;50.096;8.448;2024-01-10T06:21:56;30.00;;;7.45;;
31386;SDS011;69978;50.096;8.448;2024-01-10T06:24:22;28.15;;;7.25;;
31386;SDS011;69978;50.096;8.448;2024-01-10T06:26:47;33.97;;;6.80;;
31386;SDS011;69978;50.096;8.448;2024-01-10T06:29:14;25.90;;;6.30;;
31386;SDS011;69978;50.096;8.448;2024-01-10T06:31:40;28.25;;;6.65;;
31386;SDS011;69978;50.096;8.448;2024-01-10T06:34:06;28.17;;;6.85;;
31386;SDS011;69978;50.096;8.448;2024-01-10T06:36:31;25.80;;;7.43;;
31386;SDS011;69978;50.096;8.448;2024-01-10T06:38:57;35.67;;;7.97;;
31386;SDS011;69978;50.096;8.448;2024-01-10T06:41:22;32.72;;;6.75;;
31386;SDS011;69978;50.096;8.448;2024-01-10T06:43:49;27.73;;;6.70;;
31386;SDS011;69978;50.096;8.448;2024-01-10T06:46:18;27.63;;;6.57;;
31386;SDS011;69978;50.096;8.448;2024-01-10T06:48:45;36.22;;;7.40;;
31386;SDS011;69978;50.096;8.448;2024-01-10T06:51:14;26.90;;;6.65;;
31386;SDS011;69978;50.096;8.448;2024-01-10T06:53:40;21.02;;;5.65;;
31386;SDS011;69978;50.096;8.448;2024-01-10T06:56:06;21.98;;;5.85;;
31386;SDS011;69978;50.096;8.448;2024-01-10T06:58:32;24.23;;;5.60;;
31386;SDS011;69978;50.096;8.448;2024-01-10T07:00:58;19.58;;;5.70;;
31386;SDS011;69978;50.096;8.448;2024-01-10T07:03:30;23.90;;;5.70;;
31386;SDS011;69978;50.096;8.448;2024-01-10T07:05:56;24.55;;;5.78;;
31386;SDS011;69978;50.096;8.448;2024-01-10T07:08:22;19.85;;;5.07;;
31386;SDS011;69978;50.096;8.448;2024-01-10T07:10:47;17.58;;;5.15;;
31386;SDS011;69978;50.096;8.448;2024-01-10T07:13:13;23.55;;;6.15;;
31386;SDS011;69978;50.096;8.448;2024-01-10T07:15:39;24.17;;;5.45;;
31386;SDS011;69978;50.096;8.448;2024-01-10T07:18:04;26.70;;;5.90;;
31386;SDS011;69978;50.096;8.448;2024-01-10T07:20:31;28.00;;;6.35;;
31386;SDS011;69978;50.096;8.448;2024-01-10T07:22:57;23.45;;;5.38;;
31386;SDS011;69978;50.096;8.448;2024-01-10T07:25:24;29.08;;;5.93;;
31386;SDS011;69978;50.096;8.448;2024-01-10T07:27:51;18.92;;;5.57;;
31386;SDS011;69978;50.096;8.448;2024-01-10T07:30:18;23.65;;;5.80;;
31386;SDS011;69978;50.096;8.448;2024-01-10T07:32:44;22.25;;;5.60;;
31386;SDS011;69978;50.096;8.448;2024-01-10T07:35:11;21.25;;;5.45;;
31386;SDS011;69978;50.096;8.448;2024-01-10T07:37:38;28.90;;;6.18;;
31386;SDS011;69978;50.096;8.448;2024-01-10T07:40:09;22.75;;;5.60;;
31386;SDS011;69978;50.096;8.448;2024-01-10T07:42:38;26.15;;;6.03;;
31386;SDS011;69978;50.096;8.448;2024-01-10T07:45:07;24.83;;;5.95;;
31386;SDS011;69978;50.096;8.448;2024-01-10T07:47:33;21.25;;;5.70;;
31386;SDS011;69978;50.096;8.448;2024-01-10T07:50:03;27.88;;;6.78;;
31386;SDS011;69978;50.096;8.448;2024-01-10T07:52:33;31.20;;;7.03;;
31386;SDS011;69978;50.096;8.448;2024-01-10T07:54:59;25.13;;;6.50;;
31386;SDS011;69978;50.096;8.448;2024-01-10T07:57:26;31.42;;;7.50;;
31386;SDS011;69978;50.096;8.448;2024-01-10T07:59:53;30.10;;;6.85;;
31386;SDS011;69978;50.096;8.448;2024-01-10T08:02:19;30.67;;;7.45;;
31386;SDS011;69978;50.096;8.448;2024-01-10T08:04:44;25.27;;;6.43;;
31386;SDS011;69978;50.096;8.448;2024-01-10T08:07:10;30.27;;;7.45;;
31386;SDS011;69978;50.096;8.448;2024-01-10T08:09:36;24.83;;;6.88;;
31386;SDS011;69978;50.096;8.448;2024-01-10T08:12:02;31.27;;;7.90;;
31386;SDS011;69978;50.096;8.448;2024-01-10T08:14:28;37.88;;;8.07;;
31386;SDS011;69978;50.096;8.448;2024-01-10T08:16:54;31.88;;;7.03;;
31386;SDS011;69978;50.096;8.448;2024-01-10T08:19:23;27.15;;;6.85;;
31386;SDS011;69978;50.096;8.448;2024-01-10T08:21:51;31.65;;;7.72;;
31386;SDS011;69978;50.096;8.448;2024-01-10T08:24:17;27.40;;;6.30;;
31386;SDS011;69978;50.096;8.448;2024-01-10T08:26:48;28.42;;;7.13;;
31386;SDS011;69978;50.096;8.448;2024-01-10T08:29:17;30.88;;;7.15;;
31386;SDS011;69978;50.096;8.448;2024-01-10T08:31:44;28.60;;;6.95;;
31386;SDS011;69978;50.096;8.448;2024-01-10T08:34:10;27.45;;;6.95;;
31386;SDS011;69978;50.096;8.448;2024-01-10T08:36:35;29.20;;;7.15;;
31386;SDS011;69978;50.096;8.448;2024-01-10T08:39:02;31.13;;;7.20;;
31386;SDS011;69978;50.096;8.448;2024-01-10T08:41:29;30.90;;;7.20;;
31386;SDS011;69978;50.096;8.448;2024-01-10T08:43:55;26.92;;;7.13;;
31386;SDS011;69978;50.096;8.448;2024-01-10T08:46:22;29.63;;;7.07;;
31386;SDS011;69978;50.096;8.448;2024-01-10T08:48:51;33.47;;;7.50;;
31386;SDS011;69978;50.096;8.448;2024-01-10T08:51:16;32.58;;;7.35;;
31386;SDS011;69978;50.096;8.448;2024-01-10T08:53:42;30.17;;;7.32;;
31386;SDS011;69978;50.096;8.448;2024-01-10T08:56:09;31.27;;;7.57;;
31386;SDS011;69978;50.096;8.448;2024-01-10T08:58:35;26.52;;;7.28;;
31386;SDS011;69978;50.096;8.448;2024-01-10T09:01:02;28.83;;;6.88;;
31386;SDS011;69978;50.096;8.448;2024-01-10T09:03:33;35.38;;;7.75;;
31386;SDS011;69978;50.096;8.448;2024-01-10T09:05:59;27.58;;;7.05;;
31386;SDS011;69978;50.096;8.448;2024-01-10T09:08:24;28.65;;;7.80;;
31386;SDS011;69978;50.096;8.448;2024-01-10T09:10:51;26.80;;;7.40;;
31386;SDS011;69978;50.096;8.448;2024-01-10T09:13:17;27.60;;;7.72;;
31386;SDS011;69978;50.096;8.448;2024-01-10T09:15:44;28.55;;;7.32;;
31386;SDS011;69978;50.096;8.448;2024-01-10T09:18:09;25.67;;;6.93;;
31386;SDS011;69978;50.096;8.448;2024-01-10T09:20:35;30.98;;;7.03;;
31386;SDS011;69978;50.096;8.448;2024-01-10T09:23:02;26.65;;;6.97;;
31386;SDS011;69978;50.096;8.448;2024-01-10T09:25:34;33.17;;;7.80;;
31386;SDS011;69978;50.096;8.448;2024-01-10T09:28:00;26.92;;;7.25;;
31386;SDS011;69978;50.096;8.448;2024-01-10T09:30:25;28.70;;;7.90;;
31386;SDS011;69978;50.096;8.448;2024-01-10T09:32:51;24.77;;;7.05;;
31386;SDS011;69978;50.096;8.448;2024-01-10T09:35:16;29.90;;;6.95;;
31386;SDS011;69978;50.096;8.448;2024-01-10T09:37:43;25.83;;;6.70;;
31386;SDS011;69978;50.096;8.448;2024-01-10T09:40:11;28.90;;;7.07;;
31386;SDS011;69978;50.096;8.448;2024-01-10T09:42:39;23.70;;;6.88;;
31386;SDS011;69978;50.096;8.448;2024-01-10T09:45:05;27.45;;;7.38;;
31386;SDS011;69978;50.096;8.448;2024-01-10T09:47:34;31.40;;;7.43;;
31386;SDS011;69978;50.096;8.448;2024-01-10T09:50:02;25.90;;;6.95;;
31386;SDS011;69978;50.096;8.448;2024-01-10T09:52:28;23.38;;;7.15;;
31386;SDS011;69978;50.096;8.448;2024-01-10T09:55:05;29.05;;;6.57;;
31386;SDS011;69978;50.096;8.448;2024-01-10T09:57:33;31.33;;;7.28;;
31386;SDS011;69978;50.096;8.448;2024-01-10T10:00:01;29.02;;;7.50;;
31386;SDS011;69978;50.096;8.448;2024-01-10T10:02:29;32.47;;;8.20;;
31386;SDS011;69978;50.096;8.448;2024-01-10T10:05:04;25.92;;;6.75;;
31386;SDS011;69978;50.096;8.448;2024-01-10T10:07:42;26.40;;;7.40;;
31386;SDS011;69978;50.096;8.448;2024-01-10T10:10:17;28.38;;;7.60;;
31386;SDS011;69978;50.096;8.448;2024-01-10T10:12:45;29.33;;;7.72;;
31386;SDS011;69978;50.096;8.448;2024-01-10T10:15:16;26.77;;;7.50;;
31386;SDS011;69978;50.096;8.448;2024-01-10T10:17:43;32.75;;;8.10;;
31386;SDS011;69978;50.096;8.448;2024-01-10T10:20:20;27.75;;;7.18;;
31386;SDS011;69978;50.096;8.448;2024-01-10T10:22:58;26.60;;;7.05;;
31386;SDS011;69978;50.096;8.448;2024-01-10T10:25:30;32.05;;;7.53;;
31386;SDS011;69978;50.096;8.448;2024-01-10T10:28:08;24.40;;;6.70;;
31386;SDS011;69978;50.096;8.448;2024-01-10T10:30:33;25.80;;;6.35;;
31386;SDS011;69978;50.096;8.448;2024-01-10T10:33:01;28.40;;;7.32;;
31386;SDS011;69978;50.096;8.448;2024-01-10T10:35:27;26.80;;;7.55;;
31386;SDS011;69978;50.096;8.448;2024-01-10T10:37:52;33.88;;;8.32;;
31386;SDS011;69978;50.096;8.448;2024-01-10T10:40:19;29.15;;;7.50;;
31386;SDS011;69978;50.096;8.448;2024-01-10T10:42:45;29.08;;;7.53;;
31386;SDS011;69978;50.096;8.448;2024-01-10T10:45:16;28.40;;;7.68;;
31386;SDS011;69978;50.096;8.448;2024-01-10T10:47:43;24.83;;;7.30;;
31386;SDS011;69978;50.096;8.448;2024-01-10T10:50:12;31.17;;;7.60;;
31386;SDS011;69978;50.096;8.448;2024-01-10T10:52:44;33.42;;;7.55;;
31386;SDS011;69978;50.096;8.448;2024-01-10T10:55:13;26.38;;;7.55;;
31386;SDS011;69978;50.096;8.448;2024-01-10T10:57:46;29.70;;;6.93;;
31386;SDS011;69978;50.096;8.448;2024-01-10T11:00:14;26.45;;;6.95;;
31386;SDS011;69978;50.096;8.448;2024-01-10T11:02:41;24.70;;;7.18;;
31386;SDS011;69978;50.096;8.448;2024-01-10T11:05:07;34.70;;;7.45;;
31386;SDS011;69978;50.096;8.448;2024-01-10T11:07:41;24.33;;;6.95;;
31386;SDS011;69978;50.096;8.448;2024-01-10T11:10:11;30.42;;;7.00;;
31386;SDS011;69978;50.096;8.448;2024-01-10T11:16:10;21.08;;;6.38;;
31386;SDS011;69978;50.096;8.448;2024-01-10T11:22:11;24.88;;;6.03;;
31386;SDS011;69978;50.096;8.448;2024-01-10T11:24:50;26.83;;;7.20;;
31386;SDS011;69978;50.096;8.448;2024-01-10T11:27:16;23.92;;;7.07;;
31386;SDS011;69978;50.096;8.448;2024-01-10T11:29:43;23.92;;;6.97;;
31386;SDS011;69978;50.096;8.448;2024-01-10T11:32:15;28.97;;;7.53;;
31386;SDS011;69978;50.096;8.448;2024-01-10T11:34:54;27.75;;;6.60;;
31386;SDS011;69978;50.096;8.448;2024-01-10T11:37:27;29.17;;;7.95;;
31386;SDS011;69978;50.096;8.448;2024-01-10T11:40:03;27.02;;;8.00;;
31386;SDS011;69978;50.096;8.448;2024-01-10T11:42:45;30.17;;;7.20;;
31386;SDS011;69978;50.096;8.448;2024-01-10T11:48:01;30.50;;;7.55;;
31386;SDS011;69978;50.096;8.448;2024-01-10T11:50:27;27.00;;;7.10;;
31386;SDS011;69978;50.096;8.448;2024-01-10T11:52:56;35.53;;;7.95;;
31386;SDS011;69978;50.096;8.448;2024-01-10T11:58:16;26.27;;;6.65;;
31386;SDS011;69978;50.096;8.448;2024-01-10T12:00:42;24.50;;;6.85;;
31386;SDS011;69978;50.096;8.448;2024-01-10T12:03:09;25.75;;;7.07;;
31386;SDS011;69978;50.096;8.448;2024-01-10T12:05:37;30.85;;;7.25;;
31386;SDS011;69978;50.096;8.448;2024-01-10T12:08:06;25.27;;;6.82;;
31386;SDS011;69978;50.096;8.448;2024-01-10T12:10:33;27.52;;;6.75;;
31386;SDS011;69978;50.096;8.448;2024-01-10T12:13:01;30.42;;;7.35;;
31386;SDS011;69978;50.096;8.448;2024-01-10T12:15:28;23.85;;;6.95;;
31386;SDS011;69978;50.096;8.448;2024-01-10T12:17:54;26.25;;;6.80;;
31386;SDS011;69978;50.096;8.448;2024-01-10T12:20:20;29.98;;;7.18;;
31386;SDS011;69978;50.096;8.448;2024-01-10T12:22:46;26.23;;;7.60;;
31386;SDS011;69978;50.096;8.448;2024-01-10T12:25:12;24.42;;;6.88;;
31386;SDS011;69978;50.096;8.448;2024-01-10T12:27:38;28.88;;;7.78;;
31386;SDS011;69978;50.096;8.448;2024-01-10T12:30:04;23.98;;;6.63;;
31386;SDS011;69978;50.096;8.448;2024-01-10T12:32:31;25.30;;;6.60;;
31386;SDS011;69978;50.096;8.448;2024-01-10T12:35:01;26.52;;;7.55;;
31386;SDS011;69978;50.096;8.448;2024-01-10T12:37:27;29.52;;;7.18;;
31386;SDS011;69978;50.096;8.448;2024-01-10T12:39:53;34.47;;;7.45;;
31386;SDS011;69978;50.096;8.448;2024-01-10T12:42:18;28.88;;;7.35;;
31386;SDS011;69978;50.096;8.448;2024-01-10T12:44:44;22.45;;;6.80;;
31386;SDS011;69978;50.096;8.448;2024-01-10T12:47:17;25.75;;;6.55;;
31386;SDS011;69978;50.096;8.448;2024-01-10T12:49:47;22.90;;;6.13;;
31386;SDS011;69978;50.096;8.448;2024-01-10T12:52:12;25.52;;;6.45;;
31386;SDS011;69978;50.096;8.448;2024-01-10T12:54:39;25.27;;;6.38;;
31386;SDS011;69978;50.096;8.448;2024-01-10T12:57:05;21.25;;;6.15;;
31386;SDS011;69978;50.096;8.448;2024-01-10T12:59:31;22.00;;;6.72;;
31386;SDS011;69978;50.096;8.448;2024-01-10T13:01:58;22.45;;;6.30;;
31386;SDS011;69978;50.096;8.448;2024-01-10T13:04:24;20.85;;;6.50;;
31386;SDS011;69978;50.096;8.448;2024-01-10T13:06:50;23.25;;;6.55;;
31386;SDS011;69978;50.096;8.448;2024-01-10T13:09:16;26.70;;;6.75;;
31386;SDS011;69978;50.096;8.448;2024-01-10T13:11:42;24.27;;;6.43;;
31386;SDS011;69978;50.096;8.448;2024-01-10T13:14:08;21.80;;;5.95;;
31386;SDS011;69978;50.096;8.448;2024-01-10T13:16:34;21.25;;;6.43;;
31386;SDS011;69978;50.096;8.448;2024-01-10T13:19:00;22.75;;;6.10;;
31386;SDS011;69978;50.096;8.448;2024-01-10T13:21:26;23.75;;;6.28;;
31386;SDS011;69978;50.096;8.448;2024-01-10T13:23:51;24.80;;;6.75;;
31386;SDS011;69978;50.096;8.448;2024-01-10T13:26:17;27.02;;;6.70;;
31386;SDS011;69978;50.096;8.448;2024-01-10T13:28:43;18.23;;;5.68;;
31386;SDS011;69978;50.096;8.448;2024-01-10T13:31:09;22.05;;;6.35;;
31386;SDS011;69978;50.096;8.448;2024-01-10T13:33:35;22.27;;;6.20;;
31386;SDS011;69978;50.096;8.448;2024-01-10T13:36:02;20.70;;;6.32;;
31386;SDS011;69978;50.096;8.448;2024-01-10T13:38:29;19.10;;;6.18;;
31386;SDS011;69978;50.096;8.448;2024-01-10T13:40:55;21.85;;;6.00;;
31386;SDS011;69978;50.096;8.448;2024-01-10T13:43:20;22.75;;;6.50;;
31386;SDS011;69978;50.096;8.448;2024-01-10T13:45:46;23.02;;;5.57;;
31386;SDS011;69978;50.096;8.448;2024-01-10T13:48:11;19.15;;;5.88;;
31386;SDS011;69978;50.096;8.448;2024-01-10T13:50:37;19.50;;;5.70;;
31386;SDS011;69978;50.096;8.448;2024-01-10T13:53:03;22.27;;;6.10;;
31386;SDS011;69978;50.096;8.448;2024-01-10T13:55:29;27.75;;;6.50;;
31386;SDS011;69978;50.096;8.448;2024-01-10T13:57:55;19.75;;;6.25;;
31386;SDS011;69978;50.096;8.448;2024-01-10T14:00:21;22.02;;;6.28;;
31386;SDS011;69978;50.096;8.448;2024-01-10T14:02:47;20.15;;;6.18;;
31386;SDS011;69978;50.096;8.448;2024-01-10T14:05:13;22.00;;;5.53;;
31386;SDS011;69978;50.096;8.448;2024-01-10T14:07:39;19.73;;;5.75;;
31386;SDS011;69978;50.096;8.448;2024-01-10T14:10:09;25.45;;;6.00;;
31386;SDS011;69978;50.096;8.448;2024-01-10T14:12:35;20.95;;;6.15;;
31386;SDS011;69978;50.096;8.448;2024-01-10T14:15:01;18.67;;;5.40;;
31386;SDS011;69978;50.096;8.448;2024-01-10T14:17:27;17.77;;;4.78;;
31386;SDS011;69978;50.096;8.448;2024-01-10T14:19:53;14.55;;;4.60;;
31386;SDS011;69978;50.096;8.448;2024-01-10T14:22:19;20.55;;;5.75;;
31386;SDS011;69978;50.096;8.448;2024-01-10T14:24:44;20.75;;;5.38;;
31386;SDS011;69978;50.096;8.448;2024-01-10T14:27:10;19.60;;;5.00;;
31386;SDS011;69978;50.096;8.448;2024-01-10T14:29:36;19.23;;;5.10;;
31386;SDS011;69978;50.096;8.448;2024-01-10T14:32:01;16.70;;;5.38;;
31386;SDS011;69978;50.096;8.448;2024-01-10T14:34:28;16.55;;;5.07;;
31386;SDS011;69978;50.096;8.448;2024-01-10T14:36:54;15.85;;;5.13;;
31386;SDS011;69978;50.096;8.448;2024-01-10T14:39:19;17.85;;;5.43;;
31386;SDS011;69978;50.096;8.448;2024-01-10T14:41:45;18.35;;;4.50;;
31386;SDS011;69978;50.096;8.448;2024-01-10T14:44:11;16.13;;;5.05;;